sensor_id;sensor_type;location;lat;lon;timestamp;P1;durP1;ratioP1;P2;durP2;ratioP2
14191;SDS011;7177;48.572;7.838;2023-05-24T00:00:23;10.17;;;7.33;;
14191;SDS011;7177;48.572;7.838;2023-05-24T00:02:48;14.37;;;7.87;;
14191;SDS011;7177;48.572;7.838;2023-05-24T00:05:14;10.97;;;7.67;;
14191;SDS011;7177;48.572;7.838;2023-05-24T00:07:40;12.43;;;6.90;;
14191;SDS011;7177;48.572;7.838;2023-05-24T00:10:06;11.77;;;7.47;;
14191;SDS011;7177;48.572;7.838;2023-05-24T00:12:32;11.33;;;7.80;;
14191;SDS011;7177;48.572;7.838;2023-05-24T00:14:58;10.27;;;6.77;;
14191;SDS011;7177;48.572;7.838;2023-05-24T00:17:24;12.77;;;7.70;;
14191;SDS011;7177;48.572;7.838;2023-05-24T00:19:50;14.57;;;6.63;;
14191;SDS011;7177;48.572;7.838;2023-05-24T00:22:16;16.97;;;7.40;;
14191;SDS011;7177;48.572;7.838;2023-05-24T00:24:44;9.33;;;6.40;;
14191;SDS011;7177;48.572;7.838;2023-05-24T00:27:10;8.97;;;6.30;;
14191;SDS011;7177;48.572;7.838;2023-05-24T00:29:36;11.57;;;6.97;;
14191;SDS011;7177;48.572;7.838;2023-05-24T00:32:01;9.27;;;6.23;;
14191;SDS011;7177;48.572;7.838;2023-05-24T00:34:27;11.93;;;6.40;;
14191;SDS011;7177;48.572;7.838;2023-05-24T00:36:52;10.23;;;6.27;;
14191;SDS011;7177;48.572;7.838;2023-05-24T00:39:18;10.13;;;5.43;;
14191;SDS011;7177;48.572;7.838;2023-05-24T00:41:44;7.93;;;6.20;;
14191;SDS011;7177;48.572;7.838;2023-05-24T00:44:09;9.03;;;6.20;;
14191;SDS011;7177;48.572;7.838;2023-05-24T00:46:35;9.60;;;6.33;;
14191;SDS011;7177;48.572;7.838;2023-05-24T00:49:01;11.17;;;6.33;;
14191;SDS011;7177;48.572;7.838;2023-05-24T00:51:27;10.27;;;6.37;;
14191;SDS011;7177;48.572;7.838;2023-05-24T00:53:54;10.07;;;6.00;;
14191;SDS011;7177;48.572;7.838;2023-05-24T00:56:19;12.80;;;6.37;;
14191;SDS011;7177;48.572;7.838;2023-05-24T00:58:45;8.90;;;5.60;;
14191;SDS011;7177;48.572;7.838;2023-05-24T01:01:11;10.53;;;5.33;;
14191;SDS011;7177;48.572;7.838;2023-05-24T01:03:37;10.67;;;6.23;;
14191;SDS011;7177;48.572;7.838;2023-05-24T01:06:04;11.03;;;6.53;;
14191;SDS011;7177;48.572;7.838;2023-05-24T01:11:34;11.13;;;5.40;;
14191;SDS011;7177;48.572;7.838;2023-05-24T01:14:21;7.47;;;5.60;;
14191;SDS011;7177;48.572;7.838;2023-05-24T01:17:05;9.43;;;5.13;;
14191;SDS011;7177;48.572;7.838;2023-05-24T01:19:42;10.40;;;5.90;;
14191;SDS011;7177;48.572;7.838;2023-05-24T01:25:22;10.57;;;5.10;;
14191;SDS011;7177;48.572;7.838;2023-05-24T01:28:10;8.97;;;5.80;;
14191;SDS011;7177;48.572;7.838;2023-05-24T01:30:37;8.73;;;5.60;;
14191;SDS011;7177;48.572;7.838;2023-05-24T01:33:05;9.93;;;6.30;;
14191;SDS011;7177;48.572;7.838;2023-05-24T01:35:30;10.47;;;5.80;;
14191;SDS011;7177;48.572;7.838;2023-05-24T01:37:58;7.27;;;5.80;;
14191;SDS011;7177;48.572;7.838;2023-05-24T01:40:23;11.00;;;5.87;;
14191;SDS011;7177;48.572;7.838;2023-05-24T01:42:58;8.63;;;6.20;;
14191;SDS011;7177;48.572;7.838;2023-05-24T01:45:39;10.53;;;6.07;;
14191;SDS011;7177;48.572;7.838;2023-05-24T01:48:23;12.10;;;6.77;;
14191;SDS011;7177;48.572;7.838;2023-05-24T01:51:09;11.07;;;6.47;;
14191;SDS011;7177;48.572;7.838;2023-05-24T01:53:40;9.23;;;5.90;;
14191;SDS011;7177;48.572;7.838;2023-05-24T01:56:12;9.70;;;6.23;;
14191;SDS011;7177;48.572;7.838;2023-05-24T01:58:41;13.80;;;7.43;;
14191;SDS011;7177;48.572;7.838;2023-05-24T02:01:09;11.93;;;6.80;;
14191;SDS011;7177;48.572;7.838;2023-05-24T02:03:37;9.20;;;6.33;;
14191;SDS011;7177;48.572;7.838;2023-05-24T02:06:03;12.07;;;6.10;;
14191;SDS011;7177;48.572;7.838;2023-05-24T02:08:28;10.67;;;6.00;;
14191;SDS011;7177;48.572;7.838;2023-05-24T02:10:54;11.80;;;6.33;;
14191;SDS011;7177;48.572;7.838;2023-05-24T02:13:19;11.30;;;6.20;;
14191;SDS011;7177;48.572;7.838;2023-05-24T02:15:45;8.83;;;6.00;;
14191;SDS011;7177;48.572;7.838;2023-05-24T02:18:11;11.47;;;6.73;;
14191;SDS011;7177;48.572;7.838;2023-05-24T02:20:38;11.67;;;6.57;;
14191;SDS011;7177;48.572;7.838;2023-05-24T02:23:04;14.17;;;6.13;;
14191;SDS011;7177;48.572;7.838;2023-05-24T02:25:30;9.33;;;6.33;;
14191;SDS011;7177;48.572;7.838;2023-05-24T02:27:59;10.23;;;6.20;;
14191;SDS011;7177;48.572;7.838;2023-05-24T02:30:25;13.83;;;7.13;;
14191;SDS011;7177;48.572;7.838;2023-05-24T02:32:51;11.43;;;6.17;;
14191;SDS011;7177;48.572;7.838;2023-05-24T02:35:17;9.27;;;6.63;;
14191;SDS011;7177;48.572;7.838;2023-05-24T02:37:42;10.87;;;6.70;;
14191;SDS011;7177;48.572;7.838;2023-05-24T02:40:08;12.93;;;7.40;;
14191;SDS011;7177;48.572;7.838;2023-05-24T02:42:34;9.67;;;6.83;;
14191;SDS011;7177;48.572;7.838;2023-05-24T02:45:00;10.27;;;6.10;;
14191;SDS011;7177;48.572;7.838;2023-05-24T02:47:25;14.60;;;6.90;;
14191;SDS011;7177;48.572;7.838;2023-05-24T02:49:52;10.73;;;6.70;;
14191;SDS011;7177;48.572;7.838;2023-05-24T02:52:17;14.03;;;6.50;;
14191;SDS011;7177;48.572;7.838;2023-05-24T02:54:46;10.93;;;7.03;;
14191;SDS011;7177;48.572;7.838;2023-05-24T02:57:12;11.83;;;6.27;;
14191;SDS011;7177;48.572;7.838;2023-05-24T02:59:37;14.03;;;6.97;;
14191;SDS011;7177;48.572;7.838;2023-05-24T03:02:03;14.13;;;6.30;;
14191;SDS011;7177;48.572;7.838;2023-05-24T03:04:29;12.50;;;7.20;;
14191;SDS011;7177;48.572;7.838;2023-05-24T03:06:55;10.00;;;6.13;;
14191;SDS011;7177;48.572;7.838;2023-05-24T03:09:20;13.10;;;6.40;;
14191;SDS011;7177;48.572;7.838;2023-05-24T03:11:46;15.30;;;6.17;;
14191;SDS011;7177;48.572;7.838;2023-05-24T03:14:11;17.00;;;7.37;;
14191;SDS011;7177;48.572;7.838;2023-05-24T03:16:37;15.80;;;6.00;;
14191;SDS011;7177;48.572;7.838;2023-05-24T03:19:03;15.23;;;7.57;;
14191;SDS011;7177;48.572;7.838;2023-05-24T03:21:29;12.80;;;6.73;;
14191;SDS011;7177;48.572;7.838;2023-05-24T03:23:56;15.77;;;6.77;;
14191;SDS011;7177;48.572;7.838;2023-05-24T03:26:21;19.73;;;6.73;;
14191;SDS011;7177;48.572;7.838;2023-05-24T03:28:47;13.93;;;6.30;;
14191;SDS011;7177;48.572;7.838;2023-05-24T03:31:14;11.93;;;6.67;;
14191;SDS011;7177;48.572;7.838;2023-05-24T03:33:40;8.27;;;5.80;;
14191;SDS011;7177;48.572;7.838;2023-05-24T03:36:06;17.30;;;6.87;;
14191;SDS011;7177;48.572;7.838;2023-05-24T03:38:31;15.00;;;6.13;;
14191;SDS011;7177;48.572;7.838;2023-05-24T03:40:57;14.90;;;6.73;;
14191;SDS011;7177;48.572;7.838;2023-05-24T03:43:23;11.40;;;5.60;;
14191;SDS011;7177;48.572;7.838;2023-05-24T03:45:49;14.93;;;6.50;;
14191;SDS011;7177;48.572;7.838;2023-05-24T03:48:15;11.47;;;6.47;;
14191;SDS011;7177;48.572;7.838;2023-05-24T03:50:40;13.77;;;5.80;;
14191;SDS011;7177;48.572;7.838;2023-05-24T03:53:06;12.67;;;5.97;;
14191;SDS011;7177;48.572;7.838;2023-05-24T03:55:31;15.30;;;6.33;;
14191;SDS011;7177;48.572;7.838;2023-05-24T03:57:57;14.77;;;6.53;;
14191;SDS011;7177;48.572;7.838;2023-05-24T04:00:23;17.97;;;6.33;;
14191;SDS011;7177;48.572;7.838;2023-05-24T04:02:48;12.43;;;6.00;;
14191;SDS011;7177;48.572;7.838;2023-05-24T04:05:14;13.77;;;6.33;;
14191;SDS011;7177;48.572;7.838;2023-05-24T04:07:40;16.43;;;6.83;;
14191;SDS011;7177;48.572;7.838;2023-05-24T04:10:06;15.30;;;6.43;;
14191;SDS011;7177;48.572;7.838;2023-05-24T04:12:32;21.40;;;6.23;;
14191;SDS011;7177;48.572;7.838;2023-05-24T04:14:58;11.57;;;6.40;;
14191;SDS011;7177;48.572;7.838;2023-05-24T04:17:24;11.40;;;5.60;;
14191;SDS011;7177;48.572;7.838;2023-05-24T04:19:51;9.30;;;5.43;;
14191;SDS011;7177;48.572;7.838;2023-05-24T04:22:16;13.37;;;5.97;;
14191;SDS011;7177;48.572;7.838;2023-05-24T04:24:43;13.47;;;5.43;;
14191;SDS011;7177;48.572;7.838;2023-05-24T04:27:08;14.07;;;6.63;;
14191;SDS011;7177;48.572;7.838;2023-05-24T04:29:34;8.63;;;5.53;;
14191;SDS011;7177;48.572;7.838;2023-05-24T04:32:00;13.13;;;5.83;;
14191;SDS011;7177;48.572;7.838;2023-05-24T04:34:27;12.70;;;5.70;;
14191;SDS011;7177;48.572;7.838;2023-05-24T04:36:54;10.10;;;4.87;;
14191;SDS011;7177;48.572;7.838;2023-05-24T04:39:20;9.37;;;5.00;;
14191;SDS011;7177;48.572;7.838;2023-05-24T04:41:45;9.77;;;5.23;;
14191;SDS011;7177;48.572;7.838;2023-05-24T04:44:14;14.53;;;5.53;;
14191;SDS011;7177;48.572;7.838;2023-05-24T04:46:40;18.10;;;5.93;;
14191;SDS011;7177;48.572;7.838;2023-05-24T04:49:06;14.03;;;5.77;;
14191;SDS011;7177;48.572;7.838;2023-05-24T04:51:32;11.80;;;5.37;;
14191;SDS011;7177;48.572;7.838;2023-05-24T04:53:58;12.50;;;5.27;;
14191;SDS011;7177;48.572;7.838;2023-05-24T04:56:25;15.00;;;5.67;;
14191;SDS011;7177;48.572;7.838;2023-05-24T04:58:51;14.00;;;5.67;;
14191;SDS011;7177;48.572;7.838;2023-05-24T05:01:16;12.37;;;6.07;;
14191;SDS011;7177;48.572;7.838;2023-05-24T05:03:42;15.90;;;5.90;;
14191;SDS011;7177;48.572;7.838;2023-05-24T05:06:09;15.53;;;6.03;;
14191;SDS011;7177;48.572;7.838;2023-05-24T05:08:35;12.63;;;5.60;;
14191;SDS011;7177;48.572;7.838;2023-05-24T05:11:01;11.07;;;5.50;;
14191;SDS011;7177;48.572;7.838;2023-05-24T05:13:26;15.13;;;5.90;;
14191;SDS011;7177;48.572;7.838;2023-05-24T05:15:52;13.50;;;5.60;;
14191;SDS011;7177;48.572;7.838;2023-05-24T05:18:17;20.60;;;6.00;;
14191;SDS011;7177;48.572;7.838;2023-05-24T05:20:43;13.67;;;5.63;;
14191;SDS011;7177;48.572;7.838;2023-05-24T05:23:08;9.63;;;5.30;;
14191;SDS011;7177;48.572;7.838;2023-05-24T05:25:34;10.57;;;5.33;;
14191;SDS011;7177;48.572;7.838;2023-05-24T05:28:00;11.90;;;5.53;;
14191;SDS011;7177;48.572;7.838;2023-05-24T05:30:26;15.53;;;6.30;;
14191;SDS011;7177;48.572;7.838;2023-05-24T05:32:51;13.67;;;5.17;;
14191;SDS011;7177;48.572;7.838;2023-05-24T05:35:17;14.53;;;5.67;;
14191;SDS011;7177;48.572;7.838;2023-05-24T05:37:42;15.83;;;5.10;;
14191;SDS011;7177;48.572;7.838;2023-05-24T05:40:08;10.23;;;5.23;;
14191;SDS011;7177;48.572;7.838;2023-05-24T05:42:33;17.60;;;7.50;;
14191;SDS011;7177;48.572;7.838;2023-05-24T05:44:59;21.63;;;7.03;;
14191;SDS011;7177;48.572;7.838;2023-05-24T05:47:24;15.27;;;5.80;;
14191;SDS011;7177;48.572;7.838;2023-05-24T05:49:50;10.60;;;5.07;;
14191;SDS011;7177;48.572;7.838;2023-05-24T05:52:15;12.23;;;5.47;;
14191;SDS011;7177;48.572;7.838;2023-05-24T05:54:41;14.30;;;5.43;;
14191;SDS011;7177;48.572;7.838;2023-05-24T05:57:06;12.87;;;5.17;;
14191;SDS011;7177;48.572;7.838;2023-05-24T05:59:34;17.07;;;5.63;;
14191;SDS011;7177;48.572;7.838;2023-05-24T06:02:00;15.37;;;5.33;;
14191;SDS011;7177;48.572;7.838;2023-05-24T06:04:26;10.30;;;4.77;;
14191;SDS011;7177;48.572;7.838;2023-05-24T06:06:52;8.80;;;4.60;;
14191;SDS011;7177;48.572;7.838;2023-05-24T06:09:17;16.97;;;5.53;;
14191;SDS011;7177;48.572;7.838;2023-05-24T06:11:43;15.83;;;5.10;;
14191;SDS011;7177;48.572;7.838;2023-05-24T06:14:09;15.47;;;5.43;;
14191;SDS011;7177;48.572;7.838;2023-05-24T06:16:36;12.70;;;5.20;;
14191;SDS011;7177;48.572;7.838;2023-05-24T06:19:05;16.10;;;5.97;;
14191;SDS011;7177;48.572;7.838;2023-05-24T06:21:32;13.53;;;5.57;;
14191;SDS011;7177;48.572;7.838;2023-05-24T06:23:57;12.23;;;5.33;;
14191;SDS011;7177;48.572;7.838;2023-05-24T06:26:23;22.10;;;5.80;;
14191;SDS011;7177;48.572;7.838;2023-05-24T06:28:50;10.27;;;5.33;;
14191;SDS011;7177;48.572;7.838;2023-05-24T06:31:16;9.80;;;5.20;;
14191;SDS011;7177;48.572;7.838;2023-05-24T06:33:42;12.60;;;5.50;;
14191;SDS011;7177;48.572;7.838;2023-05-24T06:36:08;13.87;;;5.13;;
14191;SDS011;7177;48.572;7.838;2023-05-24T06:38:33;19.00;;;6.20;;
14191;SDS011;7177;48.572;7.838;2023-05-24T06:41:00;14.03;;;5.93;;
14191;SDS011;7177;48.572;7.838;2023-05-24T06:43:25;15.33;;;5.60;;
14191;SDS011;7177;48.572;7.838;2023-05-24T06:45:51;21.00;;;6.00;;
14191;SDS011;7177;48.572;7.838;2023-05-24T06:48:16;18.37;;;5.63;;
14191;SDS011;7177;48.572;7.838;2023-05-24T06:50:42;15.37;;;5.37;;
14191;SDS011;7177;48.572;7.838;2023-05-24T06:53:08;12.07;;;5.53;;
14191;SDS011;7177;48.572;7.838;2023-05-24T06:55:34;18.67;;;5.40;;
14191;SDS011;7177;48.572;7.838;2023-05-24T06:58:00;17.93;;;6.30;;
14191;SDS011;7177;48.572;7.838;2023-05-24T07:00:26;15.83;;;5.07;;
14191;SDS011;7177;48.572;7.838;2023-05-24T07:02:51;14.27;;;5.70;;
14191;SDS011;7177;48.572;7.838;2023-05-24T07:05:17;16.10;;;6.47;;
14191;SDS011;7177;48.572;7.838;2023-05-24T07:07:43;18.50;;;5.83;;
14191;SDS011;7177;48.572;7.838;2023-05-24T07:10:09;14.47;;;5.13;;
14191;SDS011;7177;48.572;7.838;2023-05-24T07:12:35;15.03;;;5.57;;
14191;SDS011;7177;48.572;7.838;2023-05-24T07:15:05;16.30;;;4.73;;
14191;SDS011;7177;48.572;7.838;2023-05-24T07:17:31;16.73;;;5.70;;
14191;SDS011;7177;48.572;7.838;2023-05-24T07:19:56;17.17;;;5.53;;
14191;SDS011;7177;48.572;7.838;2023-05-24T07:22:22;18.77;;;5.33;;
14191;SDS011;7177;48.572;7.838;2023-05-24T07:24:49;15.87;;;5.40;;
14191;SDS011;7177;48.572;7.838;2023-05-24T07:27:15;13.17;;;5.40;;
14191;SDS011;7177;48.572;7.838;2023-05-24T07:29:41;13.03;;;5.47;;
14191;SDS011;7177;48.572;7.838;2023-05-24T07:32:06;16.57;;;5.60;;
14191;SDS011;7177;48.572;7.838;2023-05-24T07:34:32;13.83;;;5.47;;
14191;SDS011;7177;48.572;7.838;2023-05-24T07:36:58;8.30;;;4.97;;
14191;SDS011;7177;48.572;7.838;2023-05-24T07:39:25;14.33;;;4.77;;
14191;SDS011;7177;48.572;7.838;2023-05-24T07:41:54;16.83;;;5.43;;
14191;SDS011;7177;48.572;7.838;2023-05-24T07:44:19;10.20;;;4.93;;
14191;SDS011;7177;48.572;7.838;2023-05-24T07:46:45;11.77;;;5.27;;
14191;SDS011;7177;48.572;7.838;2023-05-24T07:49:11;8.90;;;4.40;;
14191;SDS011;7177;48.572;7.838;2023-05-24T07:51:36;13.20;;;4.80;;
14191;SDS011;7177;48.572;7.838;2023-05-24T07:54:03;16.27;;;5.00;;
14191;SDS011;7177;48.572;7.838;2023-05-24T07:56:29;13.67;;;5.10;;
14191;SDS011;7177;48.572;7.838;2023-05-24T07:58:56;14.90;;;5.30;;
14191;SDS011;7177;48.572;7.838;2023-05-24T08:01:27;11.67;;;4.80;;
14191;SDS011;7177;48.572;7.838;2023-05-24T08:03:53;15.77;;;5.83;;
14191;SDS011;7177;48.572;7.838;2023-05-24T08:06:19;15.27;;;5.40;;
14191;SDS011;7177;48.572;7.838;2023-05-24T08:08:44;14.37;;;5.50;;
14191;SDS011;7177;48.572;7.838;2023-05-24T08:11:11;13.23;;;5.13;;
14191;SDS011;7177;48.572;7.838;2023-05-24T08:13:37;12.03;;;4.70;;
14191;SDS011;7177;48.572;7.838;2023-05-24T08:16:02;13.80;;;5.63;;
14191;SDS011;7177;48.572;7.838;2023-05-24T08:18:28;14.20;;;5.80;;
14191;SDS011;7177;48.572;7.838;2023-05-24T08:20:53;12.60;;;5.00;;
14191;SDS011;7177;48.572;7.838;2023-05-24T08:23:19;16.90;;;6.03;;
14191;SDS011;7177;48.572;7.838;2023-05-24T08:25:45;12.67;;;5.63;;
14191;SDS011;7177;48.572;7.838;2023-05-24T08:28:11;16.97;;;5.43;;
14191;SDS011;7177;48.572;7.838;2023-05-24T08:30:36;12.23;;;5.23;;
14191;SDS011;7177;48.572;7.838;2023-05-24T08:33:02;13.13;;;5.10;;
14191;SDS011;7177;48.572;7.838;2023-05-24T08:35:28;11.83;;;5.00;;
14191;SDS011;7177;48.572;7.838;2023-05-24T08:37:53;10.87;;;5.23;;
14191;SDS011;7177;48.572;7.838;2023-05-24T08:40:19;11.90;;;4.80;;
14191;SDS011;7177;48.572;7.838;2023-05-24T08:42:45;11.60;;;4.80;;
14191;SDS011;7177;48.572;7.838;2023-05-24T08:45:11;12.83;;;4.80;;
14191;SDS011;7177;48.572;7.838;2023-05-24T08:47:39;8.97;;;4.83;;
14191;SDS011;7177;48.572;7.838;2023-05-24T08:50:05;16.40;;;5.53;;
14191;SDS011;7177;48.572;7.838;2023-05-24T08:52:31;10.13;;;4.70;;
14191;SDS011;7177;48.572;7.838;2023-05-24T08:54:57;21.63;;;5.57;;
14191;SDS011;7177;48.572;7.838;2023-05-24T08:57:24;15.20;;;5.13;;
14191;SDS011;7177;48.572;7.838;2023-05-24T08:59:51;15.57;;;6.50;;
14191;SDS011;7177;48.572;7.838;2023-05-24T09:02:19;17.17;;;6.60;;
14191;SDS011;7177;48.572;7.838;2023-05-24T09:04:46;16.47;;;4.63;;
14191;SDS011;7177;48.572;7.838;2023-05-24T09:07:16;16.87;;;5.60;;
14191;SDS011;7177;48.572;7.838;2023-05-24T09:09:45;12.53;;;4.90;;
14191;SDS011;7177;48.572;7.838;2023-05-24T09:12:14;13.80;;;5.07;;
14191;SDS011;7177;48.572;7.838;2023-05-24T09:14:45;14.67;;;5.33;;
14191;SDS011;7177;48.572;7.838;2023-05-24T09:17:11;18.97;;;5.70;;
14191;SDS011;7177;48.572;7.838;2023-05-24T09:19:43;10.50;;;4.97;;
14191;SDS011;7177;48.572;7.838;2023-05-24T09:22:12;14.40;;;5.67;;
14191;SDS011;7177;48.572;7.838;2023-05-24T09:24:41;10.80;;;4.97;;
14191;SDS011;7177;48.572;7.838;2023-05-24T09:27:07;14.33;;;4.67;;
14191;SDS011;7177;48.572;7.838;2023-05-24T09:29:36;16.47;;;5.00;;
14191;SDS011;7177;48.572;7.838;2023-05-24T09:32:02;11.73;;;5.00;;
14191;SDS011;7177;48.572;7.838;2023-05-24T09:34:40;16.93;;;4.70;;
14191;SDS011;7177;48.572;7.838;2023-05-24T09:37:11;9.40;;;4.53;;
14191;SDS011;7177;48.572;7.838;2023-05-24T09:39:41;17.30;;;5.30;;
14191;SDS011;7177;48.572;7.838;2023-05-24T09:42:07;11.87;;;4.77;;
14191;SDS011;7177;48.572;7.838;2023-05-24T09:44:32;17.93;;;5.37;;
14191;SDS011;7177;48.572;7.838;2023-05-24T09:47:01;12.50;;;4.60;;
14191;SDS011;7177;48.572;7.838;2023-05-24T09:49:30;15.23;;;4.90;;
14191;SDS011;7177;48.572;7.838;2023-05-24T09:51:56;16.63;;;4.80;;
14191;SDS011;7177;48.572;7.838;2023-05-24T09:54:25;13.27;;;4.87;;
14191;SDS011;7177;48.572;7.838;2023-05-24T09:56:51;14.13;;;5.10;;
14191;SDS011;7177;48.572;7.838;2023-05-24T09:59:17;12.90;;;4.60;;
14191;SDS011;7177;48.572;7.838;2023-05-24T10:01:43;16.43;;;4.60;;
14191;SDS011;7177;48.572;7.838;2023-05-24T10:04:10;10.83;;;4.07;;
14191;SDS011;7177;48.572;7.838;2023-05-24T10:06:35;13.90;;;4.63;;
14191;SDS011;7177;48.572;7.838;2023-05-24T10:09:02;11.33;;;4.63;;
14191;SDS011;7177;48.572;7.838;2023-05-24T10:11:33;14.30;;;3.60;;
14191;SDS011;7177;48.572;7.838;2023-05-24T10:14:02;14.47;;;4.50;;
14191;SDS011;7177;48.572;7.838;2023-05-24T10:16:29;14.50;;;4.60;;
14191;SDS011;7177;48.572;7.838;2023-05-24T10:18:55;17.97;;;4.50;;
14191;SDS011;7177;48.572;7.838;2023-05-24T10:21:20;15.27;;;4.20;;
14191;SDS011;7177;48.572;7.838;2023-05-24T10:23:50;14.20;;;4.30;;
14191;SDS011;7177;48.572;7.838;2023-05-24T10:26:19;11.80;;;4.20;;
14191;SDS011;7177;48.572;7.838;2023-05-24T10:28:47;15.67;;;4.60;;
14191;SDS011;7177;48.572;7.838;2023-05-24T10:31:23;10.00;;;4.50;;
14191;SDS011;7177;48.572;7.838;2023-05-24T10:33:52;10.33;;;4.10;;
14191;SDS011;7177;48.572;7.838;2023-05-24T10:36:20;16.67;;;5.23;;
14191;SDS011;7177;48.572;7.838;2023-05-24T10:38:47;12.23;;;4.93;;
14191;SDS011;7177;48.572;7.838;2023-05-24T10:41:13;13.70;;;4.00;;
14191;SDS011;7177;48.572;7.838;2023-05-24T10:43:39;8.20;;;3.30;;
14191;SDS011;7177;48.572;7.838;2023-05-24T10:46:09;20.73;;;4.27;;
14191;SDS011;7177;48.572;7.838;2023-05-24T10:48:35;11.47;;;4.10;;
14191;SDS011;7177;48.572;7.838;2023-05-24T10:51:47;15.57;;;5.30;;
14191;SDS011;7177;48.572;7.838;2023-05-24T10:54:09;12.63;;;4.47;;
14191;SDS011;7177;48.572;7.838;2023-05-24T10:56:48;14.70;;;4.40;;
14191;SDS011;7177;48.572;7.838;2023-05-24T10:59:33;10.53;;;3.87;;
14191;SDS011;7177;48.572;7.838;2023-05-24T11:02:07;11.80;;;4.10;;
14191;SDS011;7177;48.572;7.838;2023-05-24T11:04:38;8.53;;;3.63;;
14191;SDS011;7177;48.572;7.838;2023-05-24T11:07:07;8.47;;;3.27;;
14191;SDS011;7177;48.572;7.838;2023-05-24T11:09:33;13.70;;;3.53;;
14191;SDS011;7177;48.572;7.838;2023-05-24T11:12:06;10.17;;;3.77;;
14191;SDS011;7177;48.572;7.838;2023-05-24T11:14:37;10.13;;;3.90;;
14191;SDS011;7177;48.572;7.838;2023-05-24T11:17:06;11.03;;;3.57;;
14191;SDS011;7177;48.572;7.838;2023-05-24T11:19:33;11.17;;;3.63;;
14191;SDS011;7177;48.572;7.838;2023-05-24T11:21:59;10.77;;;3.77;;
14191;SDS011;7177;48.572;7.838;2023-05-24T11:24:26;9.60;;;3.93;;
14191;SDS011;7177;48.572;7.838;2023-05-24T11:26:53;10.13;;;3.40;;
14191;SDS011;7177;48.572;7.838;2023-05-24T11:29:19;6.30;;;3.07;;
14191;SDS011;7177;48.572;7.838;2023-05-24T11:31:55;14.30;;;3.90;;
14191;SDS011;7177;48.572;7.838;2023-05-24T11:34:30;12.03;;;3.20;;
14191;SDS011;7177;48.572;7.838;2023-05-24T11:36:59;10.50;;;3.63;;
14191;SDS011;7177;48.572;7.838;2023-05-24T11:39:29;10.40;;;3.70;;
14191;SDS011;7177;48.572;7.838;2023-05-24T11:42:04;14.63;;;3.97;;
14191;SDS011;7177;48.572;7.838;2023-05-24T11:44:31;11.40;;;3.60;;
14191;SDS011;7177;48.572;7.838;2023-05-24T11:46:58;11.90;;;3.80;;
14191;SDS011;7177;48.572;7.838;2023-05-24T11:49:25;11.33;;;3.20;;
14191;SDS011;7177;48.572;7.838;2023-05-24T11:51:54;9.07;;;2.80;;
14191;SDS011;7177;48.572;7.838;2023-05-24T11:54:21;8.23;;;2.73;;
14191;SDS011;7177;48.572;7.838;2023-05-24T11:56:47;6.93;;;3.23;;
14191;SDS011;7177;48.572;7.838;2023-05-24T11:59:14;12.67;;;4.30;;
14191;SDS011;7177;48.572;7.838;2023-05-24T12:01:41;8.07;;;3.30;;
14191;SDS011;7177;48.572;7.838;2023-05-24T12:04:07;8.50;;;3.70;;
14191;SDS011;7177;48.572;7.838;2023-05-24T12:06:34;9.63;;;2.77;;
14191;SDS011;7177;48.572;7.838;2023-05-24T12:09:01;10.57;;;2.90;;
14191;SDS011;7177;48.572;7.838;2023-05-24T12:11:30;10.23;;;2.90;;
14191;SDS011;7177;48.572;7.838;2023-05-24T12:13:56;7.97;;;2.90;;
14191;SDS011;7177;48.572;7.838;2023-05-24T12:16:23;12.00;;;3.20;;
14191;SDS011;7177;48.572;7.838;2023-05-24T12:18:50;10.83;;;3.00;;
14191;SDS011;7177;48.572;7.838;2023-05-24T12:21:16;11.70;;;3.23;;
14191;SDS011;7177;48.572;7.838;2023-05-24T12:23:44;10.93;;;2.90;;
14191;SDS011;7177;48.572;7.838;2023-05-24T12:26:12;7.20;;;2.77;;
14191;SDS011;7177;48.572;7.838;2023-05-24T12:28:37;5.87;;;2.67;;
14191;SDS011;7177;48.572;7.838;2023-05-24T12:31:03;8.33;;;3.20;;
14191;SDS011;7177;48.572;7.838;2023-05-24T12:33:29;18.53;;;3.43;;
14191;SDS011;7177;48.572;7.838;2023-05-24T12:35:55;8.87;;;3.10;;
14191;SDS011;7177;48.572;7.838;2023-05-24T12:38:23;10.67;;;3.27;;
14191;SDS011;7177;48.572;7.838;2023-05-24T12:40:49;9.07;;;3.43;;
14191;SDS011;7177;48.572;7.838;2023-05-24T12:43:15;10.73;;;3.23;;
14191;SDS011;7177;48.572;7.838;2023-05-24T12:45:42;9.50;;;3.60;;
14191;SDS011;7177;48.572;7.838;2023-05-24T12:48:08;6.77;;;3.10;;
14191;SDS011;7177;48.572;7.838;2023-05-24T12:50:33;9.30;;;3.17;;
14191;SDS011;7177;48.572;7.838;2023-05-24T12:52:59;8.73;;;3.50;;
14191;SDS011;7177;48.572;7.838;2023-05-24T12:55:25;8.23;;;2.87;;
14191;SDS011;7177;48.572;7.838;2023-05-24T12:57:52;8.23;;;2.80;;
14191;SDS011;7177;48.572;7.838;2023-05-24T13:00:19;7.27;;;2.53;;
14191;SDS011;7177;48.572;7.838;2023-05-24T13:02:46;6.00;;;2.40;;
14191;SDS011;7177;48.572;7.838;2023-05-24T13:05:12;9.33;;;2.70;;
14191;SDS011;7177;48.572;7.838;2023-05-24T13:07:37;6.90;;;2.57;;
14191;SDS011;7177;48.572;7.838;2023-05-24T13:10:04;8.50;;;2.90;;
14191;SDS011;7177;48.572;7.838;2023-05-24T13:12:30;8.73;;;3.07;;
14191;SDS011;7177;48.572;7.838;2023-05-24T13:14:56;8.97;;;2.87;;
14191;SDS011;7177;48.572;7.838;2023-05-24T13:17:22;8.30;;;2.90;;
14191;SDS011;7177;48.572;7.838;2023-05-24T13:19:47;9.43;;;2.77;;
14191;SDS011;7177;48.572;7.838;2023-05-24T13:22:13;9.27;;;3.03;;
14191;SDS011;7177;48.572;7.838;2023-05-24T13:24:39;9.90;;;2.70;;
14191;SDS011;7177;48.572;7.838;2023-05-24T13:27:05;9.77;;;2.70;;
14191;SDS011;7177;48.572;7.838;2023-05-24T13:29:31;10.30;;;2.70;;
14191;SDS011;7177;48.572;7.838;2023-05-24T13:31:57;5.23;;;2.57;;
14191;SDS011;7177;48.572;7.838;2023-05-24T13:34:22;9.80;;;2.90;;
14191;SDS011;7177;48.572;7.838;2023-05-24T13:36:51;8.90;;;3.33;;
14191;SDS011;7177;48.572;7.838;2023-05-24T13:39:18;8.80;;;2.67;;
14191;SDS011;7177;48.572;7.838;2023-05-24T13:41:45;5.13;;;2.33;;
14191;SDS011;7177;48.572;7.838;2023-05-24T13:44:11;9.80;;;2.87;;
14191;SDS011;7177;48.572;7.838;2023-05-24T13:46:38;7.63;;;2.57;;
14191;SDS011;7177;48.572;7.838;2023-05-24T13:49:04;12.13;;;2.87;;
14191;SDS011;7177;48.572;7.838;2023-05-24T13:51:29;8.13;;;2.83;;
14191;SDS011;7177;48.572;7.838;2023-05-24T13:53:55;13.60;;;3.70;;
14191;SDS011;7177;48.572;7.838;2023-05-24T13:56:21;8.80;;;2.63;;
14191;SDS011;7177;48.572;7.838;2023-05-24T13:58:47;10.63;;;3.13;;
14191;SDS011;7177;48.572;7.838;2023-05-24T14:01:13;6.63;;;2.80;;
14191;SDS011;7177;48.572;7.838;2023-05-24T14:03:39;6.33;;;2.30;;
14191;SDS011;7177;48.572;7.838;2023-05-24T14:06:05;5.40;;;2.20;;
14191;SDS011;7177;48.572;7.838;2023-05-24T14:08:34;5.53;;;2.33;;
14191;SDS011;7177;48.572;7.838;2023-05-24T14:10:59;4.70;;;2.10;;
14191;SDS011;7177;48.572;7.838;2023-05-24T14:13:25;6.97;;;2.07;;
14191;SDS011;7177;48.572;7.838;2023-05-24T14:15:51;8.83;;;2.20;;
14191;SDS011;7177;48.572;7.838;2023-05-24T14:18:16;11.20;;;2.33;;
14191;SDS011;7177;48.572;7.838;2023-05-24T14:20:42;5.57;;;2.37;;
14191;SDS011;7177;48.572;7.838;2023-05-24T14:23:07;7.50;;;2.00;;
14191;SDS011;7177;48.572;7.838;2023-05-24T14:25:33;6.73;;;2.30;;
14191;SDS011;7177;48.572;7.838;2023-05-24T14:27:59;5.60;;;2.20;;
14191;SDS011;7177;48.572;7.838;2023-05-24T14:30:25;9.87;;;2.30;;
14191;SDS011;7177;48.572;7.838;2023-05-24T14:32:51;6.90;;;2.47;;
14191;SDS011;7177;48.572;7.838;2023-05-24T14:35:16;9.63;;;2.50;;
14191;SDS011;7177;48.572;7.838;2023-05-24T14:37:42;3.93;;;2.17;;
14191;SDS011;7177;48.572;7.838;2023-05-24T14:40:08;7.80;;;2.47;;
14191;SDS011;7177;48.572;7.838;2023-05-24T14:42:34;4.40;;;1.80;;
14191;SDS011;7177;48.572;7.838;2023-05-24T14:45:00;5.30;;;2.50;;
14191;SDS011;7177;48.572;7.838;2023-05-24T14:47:25;5.20;;;2.20;;
14191;SDS011;7177;48.572;7.838;2023-05-24T14:49:52;5.50;;;1.97;;
14191;SDS011;7177;48.572;7.838;2023-05-24T14:52:18;7.57;;;2.63;;
14191;SDS011;7177;48.572;7.838;2023-05-24T14:54:43;4.97;;;2.10;;